sensor_id;sensor_type;location;lat;lon;timestamp;pressure;altitude;pressure_sealevel;temperature;humidity
7966;BME280;4028;43.272;26.932;2023-02-24T00:01:12;99519.19;;;6.24;100.00
7966;BME280;4028;43.272;26.932;2023-02-24T00:03:40;99521.47;;;6.29;100.00
7966;BME280;4028;43.272;26.932;2023-02-24T00:06:10;99508.69;;;6.12;100.00
7966;BME280;4028;43.272;26.932;2023-02-24T00:08:39;99515.28;;;6.17;100.00
7966;BME280;4028;43.272;26.932;2023-02-24T00:11:16;99489.25;;;6.02;100.00
7966;BME280;4028;43.272;26.932;2023-02-24T00:13:43;99509.22;;;6.04;100.00
7966;BME280;4028;43.272;26.932;2023-02-24T00:16:14;99493.34;;;6.06;100.00
7966;BME280;4028;43.272;26.932;2023-02-24T00:18:44;99493.88;;;6.11;100.00
7966;BME280;4028;43.272;26.932;2023-02-24T00:21:12;99492.50;;;6.05;100.00
7966;BME280;4028;43.272;26.932;2023-02-24T00:23:40;99487.34;;;6.04;100.00
7966;BME280;4028;43.272;26.932;2023-02-24T00:26:08;99484.72;;;6.04;100.00
7966;BME280;4028;43.272;26.932;2023-02-24T00:28:34;99479.06;;;6.10;100.00
7966;BME280;4028;43.272;26.932;2023-02-24T00:31:13;99482.63;;;5.96;100.00
7966;BME280;4028;43.272;26.932;2023-02-24T00:33:41;99480.72;;;5.98;100.00
7966;BME280;4028;43.272;26.932;2023-02-24T00:36:12;99474.19;;;6.04;100.00
7966;BME280;4028;43.272;26.932;2023-02-24T00:38:39;99475.72;;;5.95;100.00
7966;BME280;4028;43.272;26.932;2023-02-24T00:41:12;99467.19;;;5.91;100.00
7966;BME280;4028;43.272;26.932;2023-02-24T00:43:41;99469.06;;;5.77;100.00
7966;BME280;4028;43.272;26.932;2023-02-24T00:46:15;99467.34;;;5.63;100.00
7966;BME280;4028;43.272;26.932;2023-02-24T00:48:46;99462.22;;;5.61;100.00
7966;BME280;4028;43.272;26.932;2023-02-24T00:51:15;99462.13;;;5.76;100.00
7966;BME280;4028;43.272;26.932;2023-02-24T00:53:41;99458.66;;;5.62;100.00
7966;BME280;4028;43.272;26.932;2023-02-24T00:56:08;99460.97;;;5.67;100.00
7966;BME280;4028;43.272;26.932;2023-02-24T00:58:37;99446.88;;;5.68;100.00
7966;BME280;4028;43.272;26.932;2023-02-24T01:01:03;99450.69;;;5.64;100.00
7966;BME280;4028;43.272;26.932;2023-02-24T01:03:30;99456.53;;;5.67;100.00
7966;BME280;4028;43.272;26.932;2023-02-24T01:06:00;99444.38;;;5.54;100.00
7966;BME280;4028;43.272;26.932;2023-02-24T01:08:31;99442.50;;;5.43;100.00
7966;BME280;4028;43.272;26.932;2023-02-24T01:11:01;99442.16;;;5.35;100.00
7966;BME280;4028;43.272;26.932;2023-02-24T01:13:46;99437.75;;;5.35;100.00
7966;BME280;4028;43.272;26.932;2023-02-24T01:16:12;99431.03;;;5.44;100.00
7966;BME280;4028;43.272;26.932;2023-02-24T01:18:40;99427.78;;;5.40;100.00
7966;BME280;4028;43.272;26.932;2023-02-24T01:21:06;99431.47;;;5.38;100.00
7966;BME280;4028;43.272;26.932;2023-02-24T01:23:32;99418.44;;;5.24;100.00
7966;BME280;4028;43.272;26.932;2023-02-24T01:25:57;99420.53;;;5.18;100.00
7966;BME280;4028;43.272;26.932;2023-02-24T01:28:25;99408.31;;;5.05;100.00
7966;BME280;4028;43.272;26.932;2023-02-24T01:30:52;99415.81;;;5.24;100.00
7966;BME280;4028;43.272;26.932;2023-02-24T01:33:18;99412.66;;;5.18;100.00
7966;BME280;4028;43.272;26.932;2023-02-24T01:35:44;99404.38;;;5.12;100.00
7966;BME280;4028;43.272;26.932;2023-02-24T01:38:10;99404.56;;;5.09;100.00
7966;BME280;4028;43.272;26.932;2023-02-24T01:40:36;99390.81;;;4.92;100.00
7966;BME280;4028;43.272;26.932;2023-02-24T01:43:02;99402.25;;;5.04;100.00
7966;BME280;4028;43.272;26.932;2023-02-24T01:45:33;99399.44;;;5.07;100.00
7966;BME280;4028;43.272;26.932;2023-02-24T01:48:03;99394.91;;;5.09;100.00
7966;BME280;4028;43.272;26.932;2023-02-24T01:50:31;99375.69;;;4.96;100.00
7966;BME280;4028;43.272;26.932;2023-02-24T01:53:01;99389.66;;;4.97;100.00
7966;BME280;4028;43.272;26.932;2023-02-24T01:55:32;99388.47;;;5.01;100.00
7966;BME280;4028;43.272;26.932;2023-02-24T01:58:05;99384.19;;;5.00;100.00
7966;BME280;4028;43.272;26.932;2023-02-24T02:00:33;99387.66;;;5.00;100.00
7966;BME280;4028;43.272;26.932;2023-02-24T02:03:32;99383.03;;;5.04;100.00
7966;BME280;4028;43.272;26.932;2023-02-24T02:06:04;99381.44;;;5.01;100.00
7966;BME280;4028;43.272;26.932;2023-02-24T02:08:31;99381.69;;;4.98;100.00
7966;BME280;4028;43.272;26.932;2023-02-24T02:11:04;99379.38;;;5.06;100.00
7966;BME280;4028;43.272;26.932;2023-02-24T02:13:31;99375.50;;;5.12;100.00
7966;BME280;4028;43.272;26.932;2023-02-24T02:16:37;99378.81;;;5.01;100.00
7966;BME280;4028;43.272;26.932;2023-02-24T02:19:35;99365.22;;;5.09;100.00
7966;BME280;4028;43.272;26.932;2023-02-24T02:38:09;99375.06;;;4.92;100.00
7966;BME280;4028;43.272;26.932;2023-02-24T02:40:52;99374.00;;;4.82;100.00
7966;BME280;4028;43.272;26.932;2023-02-24T02:43:27;99359.41;;;4.78;100.00
7966;BME280;4028;43.272;26.932;2023-02-24T02:46:02;99372.94;;;4.85;100.00
7966;BME280;4028;43.272;26.932;2023-02-24T02:48:38;99367.06;;;4.81;100.00
7966;BME280;4028;43.272;26.932;2023-02-24T02:51:15;99367.47;;;4.75;100.00
7966;BME280;4028;43.272;26.932;2023-02-24T02:54:08;99373.16;;;4.82;100.00
7966;BME280;4028;43.272;26.932;2023-02-24T02:56:40;99367.38;;;4.77;100.00
7966;BME280;4028;43.272;26.932;2023-02-24T02:59:07;99370.31;;;4.72;100.00
7966;BME280;4028;43.272;26.932;2023-02-24T03:01:37;99371.34;;;4.69;100.00
7966;BME280;4028;43.272;26.932;2023-02-24T03:04:08;99369.13;;;4.63;100.00
7966;BME280;4028;43.272;26.932;2023-02-24T03:06:44;99344.75;;;4.49;100.00
7966;BME280;4028;43.272;26.932;2023-02-24T03:09:22;99366.09;;;4.69;100.00
7966;BME280;4028;43.272;26.932;2023-02-24T03:11:52;99345.75;;;4.73;100.00
7966;BME280;4028;43.272;26.932;2023-02-24T03:14:27;99360.13;;;4.80;100.00
7966;BME280;4028;43.272;26.932;2023-02-24T03:16:54;99360.44;;;4.76;100.00
7966;BME280;4028;43.272;26.932;2023-02-24T03:19:27;99349.94;;;4.76;100.00
7966;BME280;4028;43.272;26.932;2023-02-24T03:22:02;99348.28;;;4.75;100.00
7966;BME280;4028;43.272;26.932;2023-02-24T03:24:30;99352.03;;;4.70;100.00
7966;BME280;4028;43.272;26.932;2023-02-24T03:27:07;99344.94;;;4.73;100.00
7966;BME280;4028;43.272;26.932;2023-02-24T03:29:47;99347.03;;;4.80;100.00
7966;BME280;4028;43.272;26.932;2023-02-24T03:32:21;99347.97;;;4.79;100.00
7966;BME280;4028;43.272;26.932;2023-02-24T03:37:30;99337.91;;;4.86;100.00
7966;BME280;4028;43.272;26.932;2023-02-24T03:39:59;99328.13;;;4.75;100.00
7966;BME280;4028;43.272;26.932;2023-02-24T03:42:33;99337.47;;;4.79;100.00
7966;BME280;4028;43.272;26.932;2023-02-24T03:44:59;99338.78;;;4.86;100.00
7966;BME280;4028;43.272;26.932;2023-02-24T03:47:25;99331.22;;;4.82;100.00
7966;BME280;4028;43.272;26.932;2023-02-24T03:49:51;99332.47;;;4.89;100.00
7966;BME280;4028;43.272;26.932;2023-02-24T03:55:15;99321.56;;;4.82;100.00
7966;BME280;4028;43.272;26.932;2023-02-24T04:06:18;99312.31;;;4.77;100.00
7966;BME280;4028;43.272;26.932;2023-02-24T04:08:50;99313.06;;;4.79;100.00
7966;BME280;4028;43.272;26.932;2023-02-24T04:11:24;99303.63;;;4.76;100.00
7966;BME280;4028;43.272;26.932;2023-02-24T04:14:11;99301.91;;;4.75;100.00
7966;BME280;4028;43.272;26.932;2023-02-24T04:16:47;99301.00;;;4.76;100.00
7966;BME280;4028;43.272;26.932;2023-02-24T04:19:17;99294.19;;;4.86;100.00
7966;BME280;4028;43.272;26.932;2023-02-24T04:21:45;99291.53;;;4.74;100.00
7966;BME280;4028;43.272;26.932;2023-02-24T04:24:16;99263.75;;;4.58;100.00
7966;BME280;4028;43.272;26.932;2023-02-24T04:26:45;99282.31;;;4.68;100.00
7966;BME280;4028;43.272;26.932;2023-02-24T04:29:17;99282.09;;;4.58;100.00
7966;BME280;4028;43.272;26.932;2023-02-24T04:31:51;99285.97;;;4.65;100.00
7966;BME280;4028;43.272;26.932;2023-02-24T04:34:18;99279.06;;;4.64;100.00
7966;BME280;4028;43.272;26.932;2023-02-24T04:36:45;99277.50;;;4.62;100.00
7966;BME280;4028;43.272;26.932;2023-02-24T04:39:18;99260.78;;;4.50;100.00
7966;BME280;4028;43.272;26.932;2023-02-24T04:41:47;99284.22;;;4.66;100.00
7966;BME280;4028;43.272;26.932;2023-02-24T04:44:18;99271.22;;;4.77;100.00
7966;BME280;4028;43.272;26.932;2023-02-24T04:46:48;99273.31;;;4.72;100.00
7966;BME280;4028;43.272;26.932;2023-02-24T04:49:15;99272.66;;;4.68;100.00
7966;BME280;4028;43.272;26.932;2023-02-24T04:51:40;99264.91;;;4.67;100.00
7966;BME280;4028;43.272;26.932;2023-02-24T04:54:11;99266.81;;;4.78;100.00
7966;BME280;4028;43.272;26.932;2023-02-24T04:56:45;99238.47;;;4.70;100.00
7966;BME280;4028;43.272;26.932;2023-02-24T04:59:13;99254.84;;;4.74;100.00
7966;BME280;4028;43.272;26.932;2023-02-24T05:01:40;99261.34;;;4.81;100.00
7966;BME280;4028;43.272;26.932;2023-02-24T05:04:07;99243.63;;;4.72;100.00
7966;BME280;4028;43.272;26.932;2023-02-24T05:06:33;99246.25;;;4.59;100.00
7966;BME280;4028;43.272;26.932;2023-02-24T05:08:59;99266.28;;;4.73;100.00
7966;BME280;4028;43.272;26.932;2023-02-24T05:11:26;99268.69;;;4.76;100.00
7966;BME280;4028;43.272;26.932;2023-02-24T05:13:59;99257.34;;;4.75;100.00
7966;BME280;4028;43.272;26.932;2023-02-24T05:16:24;99265.97;;;4.90;100.00
7966;BME280;4028;43.272;26.932;2023-02-24T05:18:53;99259.59;;;4.81;100.00
7966;BME280;4028;43.272;26.932;2023-02-24T05:21:38;99274.97;;;4.86;100.00
7966;BME280;4028;43.272;26.932;2023-02-24T05:24:06;99261.88;;;4.73;100.00
7966;BME280;4028;43.272;26.932;2023-02-24T05:26:33;99283.78;;;4.85;100.00
7966;BME280;4028;43.272;26.932;2023-02-24T05:29:01;99276.25;;;4.93;100.00
7966;BME280;4028;43.272;26.932;2023-02-24T05:31:29;99277.63;;;4.99;100.00
7966;BME280;4028;43.272;26.932;2023-02-24T05:34:04;99274.59;;;4.92;100.00
7966;BME280;4028;43.272;26.932;2023-02-24T05:36:34;99270.59;;;4.86;100.00
7966;BME280;4028;43.272;26.932;2023-02-24T05:39:00;99281.28;;;5.09;100.00
7966;BME280;4028;43.272;26.932;2023-02-24T05:41:37;99276.69;;;5.12;100.00
7966;BME280;4028;43.272;26.932;2023-02-24T05:44:09;99283.59;;;5.13;100.00
7966;BME280;4028;43.272;26.932;2023-02-24T05:46:44;99286.50;;;5.21;100.00
7966;BME280;4028;43.272;26.932;2023-02-24T05:49:18;99285.16;;;5.16;100.00
7966;BME280;4028;43.272;26.932;2023-02-24T05:51:49;99286.50;;;5.21;100.00
7966;BME280;4028;43.272;26.932;2023-02-24T05:54:24;99292.06;;;5.30;100.00
7966;BME280;4028;43.272;26.932;2023-02-24T05:56:53;99290.91;;;5.34;100.00
7966;BME280;4028;43.272;26.932;2023-02-24T05:59:21;99294.50;;;5.33;100.00
7966;BME280;4028;43.272;26.932;2023-02-24T06:01:48;99285.88;;;5.31;100.00
7966;BME280;4028;43.272;26.932;2023-02-24T06:04:18;99291.13;;;5.31;100.00
7966;BME280;4028;43.272;26.932;2023-02-24T06:07:05;99272.22;;;5.26;100.00
7966;BME280;4028;43.272;26.932;2023-02-24T06:09:31;99289.00;;;5.48;100.00
7966;BME280;4028;43.272;26.932;2023-02-24T06:11:58;99281.84;;;5.51;100.00
7966;BME280;4028;43.272;26.932;2023-02-24T06:14:24;99288.44;;;5.56;100.00
7966;BME280;4028;43.272;26.932;2023-02-24T06:16:49;99283.63;;;5.50;100.00
7966;BME280;4028;43.272;26.932;2023-02-24T06:19:15;99268.84;;;5.49;100.00
7966;BME280;4028;43.272;26.932;2023-02-24T06:21:41;99288.94;;;5.74;100.00
7966;BME280;4028;43.272;26.932;2023-02-24T06:24:12;99285.69;;;5.70;100.00
7966;BME280;4028;43.272;26.932;2023-02-24T06:26:39;99284.84;;;5.70;100.00
7966;BME280;4028;43.272;26.932;2023-02-24T06:29:11;99285.91;;;5.67;100.00
7966;BME280;4028;43.272;26.932;2023-02-24T06:31:38;99284.53;;;5.74;100.00
7966;BME280;4028;43.272;26.932;2023-02-24T06:34:03;99282.41;;;5.80;100.00
7966;BME280;4028;43.272;26.932;2023-02-24T06:36:29;99287.34;;;5.84;100.00
7966;BME280;4028;43.272;26.932;2023-02-24T06:38:54;99289.44;;;5.92;100.00
7966;BME280;4028;43.272;26.932;2023-02-24T06:41:20;99291.41;;;6.01;100.00
7966;BME280;4028;43.272;26.932;2023-02-24T06:43:45;99294.34;;;5.96;100.00
7966;BME280;4028;43.272;26.932;2023-02-24T06:46:13;99291.78;;;6.08;100.00
7966;BME280;4028;43.272;26.932;2023-02-24T06:48:40;99287.56;;;6.29;100.00
7966;BME280;4028;43.272;26.932;2023-02-24T06:51:10;99274.94;;;6.34;100.00
7966;BME280;4028;43.272;26.932;2023-02-24T06:53:40;99270.63;;;6.33;100.00
7966;BME280;4028;43.272;26.932;2023-02-24T06:56:13;99245.03;;;6.24;100.00
7966;BME280;4028;43.272;26.932;2023-02-24T06:58:44;99277.00;;;6.42;100.00
7966;BME280;4028;43.272;26.932;2023-02-24T07:01:14;99272.09;;;6.37;100.00
7966;BME280;4028;43.272;26.932;2023-02-24T07:03:41;99269.09;;;6.31;100.00
7966;BME280;4028;43.272;26.932;2023-02-24T07:06:24;99264.31;;;6.36;100.00
7966;BME280;4028;43.272;26.932;2023-02-24T07:08:51;99267.19;;;6.44;100.00
7966;BME280;4028;43.272;26.932;2023-02-24T07:11:18;99264.47;;;6.45;100.00
7966;BME280;4028;43.272;26.932;2023-02-24T07:13:45;99266.97;;;6.47;100.00
7966;BME280;4028;43.272;26.932;2023-02-24T07:16:17;99268.41;;;6.40;100.00
7966;BME280;4028;43.272;26.932;2023-02-24T07:18:43;99257.44;;;6.57;100.00
7966;BME280;4028;43.272;26.932;2023-02-24T07:21:13;99252.91;;;6.59;100.00
7966;BME280;4028;43.272;26.932;2023-02-24T07:23:44;99233.78;;;6.57;100.00
7966;BME280;4028;43.272;26.932;2023-02-24T07:26:12;99244.94;;;6.72;100.00
7966;BME280;4028;43.272;26.932;2023-02-24T07:28:39;99242.28;;;6.61;100.00
7966;BME280;4028;43.272;26.932;2023-02-24T07:31:09;99240.72;;;6.69;100.00
7966;BME280;4028;43.272;26.932;2023-02-24T07:33:37;99230.47;;;6.66;100.00
7966;BME280;4028;43.272;26.932;2023-02-24T07:36:07;99233.59;;;6.71;100.00
7966;BME280;4028;43.272;26.932;2023-02-24T07:38:40;99238.97;;;6.81;100.00
7966;BME280;4028;43.272;26.932;2023-02-24T07:41:07;99228.22;;;6.84;100.00
7966;BME280;4028;43.272;26.932;2023-02-24T07:43:37;99236.34;;;6.92;100.00
7966;BME280;4028;43.272;26.932;2023-02-24T07:46:11;99230.50;;;7.00;100.00
7966;BME280;4028;43.272;26.932;2023-02-24T07:48:38;99222.50;;;7.01;100.00
7966;BME280;4028;43.272;26.932;2023-02-24T07:51:08;99219.72;;;7.03;100.00
7966;BME280;4028;43.272;26.932;2023-02-24T07:53:35;99213.75;;;7.01;100.00
7966;BME280;4028;43.272;26.932;2023-02-24T07:56:14;99202.63;;;6.97;100.00
7966;BME280;4028;43.272;26.932;2023-02-24T07:58:48;99208.72;;;6.98;100.00
7966;BME280;4028;43.272;26.932;2023-02-24T08:01:27;99203.34;;;7.11;100.00
7966;BME280;4028;43.272;26.932;2023-02-24T08:03:55;99204.88;;;7.24;100.00
7966;BME280;4028;43.272;26.932;2023-02-24T08:06:23;99199.03;;;7.32;100.00
7966;BME280;4028;43.272;26.932;2023-02-24T08:08:54;99166.38;;;7.23;100.00
7966;BME280;4028;43.272;26.932;2023-02-24T08:11:25;99188.69;;;7.51;100.00
7966;BME280;4028;43.272;26.932;2023-02-24T08:13:51;99188.09;;;7.59;100.00
7966;BME280;4028;43.272;26.932;2023-02-24T08:16:16;99183.13;;;7.98;100.00
7966;BME280;4028;43.272;26.932;2023-02-24T08:18:42;99174.84;;;8.34;100.00
7966;BME280;4028;43.272;26.932;2023-02-24T08:21:16;99174.03;;;8.65;100.00
7966;BME280;4028;43.272;26.932;2023-02-24T08:23:45;99174.34;;;8.92;100.00
7966;BME280;4028;43.272;26.932;2023-02-24T08:26:11;99172.63;;;9.31;100.00
7966;BME280;4028;43.272;26.932;2023-02-24T08:28:40;99164.09;;;9.87;100.00
7966;BME280;4028;43.272;26.932;2023-02-24T08:31:06;99167.22;;;10.68;100.00
7966;BME280;4028;43.272;26.932;2023-02-24T08:33:32;99172.09;;;10.73;100.00
7966;BME280;4028;43.272;26.932;2023-02-24T08:36:01;99166.81;;;10.73;100.00
7966;BME280;4028;43.272;26.932;2023-02-24T08:38:30;99155.63;;;10.79;100.00
7966;BME280;4028;43.272;26.932;2023-02-24T08:41:05;99159.38;;;10.86;100.00
7966;BME280;4028;43.272;26.932;2023-02-24T08:43:39;99165.94;;;10.82;100.00
7966;BME280;4028;43.272;26.932;2023-02-24T08:46:15;99157.31;;;10.80;100.00
7966;BME280;4028;43.272;26.932;2023-02-24T08:48:50;99155.22;;;10.74;100.00
7966;BME280;4028;43.272;26.932;2023-02-24T08:51:31;99152.03;;;10.80;100.00
7966;BME280;4028;43.272;26.932;2023-02-24T08:54:04;99147.84;;;10.78;100.00
7966;BME280;4028;43.272;26.932;2023-02-24T08:56:36;99149.69;;;10.67;100.00
7966;BME280;4028;43.272;26.932;2023-02-24T08:59:09;99151.56;;;10.85;100.00
7966;BME280;4028;43.272;26.932;2023-02-24T09:01:54;99143.03;;;11.01;100.00
7966;BME280;4028;43.272;26.932;2023-02-24T09:04:40;99145.00;;;11.26;100.00
7966;BME280;4028;43.272;26.932;2023-02-24T09:07:15;99147.44;;;11.37;100.00
7966;BME280;4028;43.272;26.932;2023-02-24T09:09:42;99125.00;;;11.32;100.00
7966;BME280;4028;43.272;26.932;2023-02-24T09:12:09;99136.16;;;11.08;100.00
7966;BME280;4028;43.272;26.932;2023-02-24T09:14:47;99146.47;;;11.11;100.00
7966;BME280;4028;43.272;26.932;2023-02-24T09:17:14;99140.66;;;10.98;100.00
7966;BME280;4028;43.272;26.932;2023-02-24T09:19:46;99143.06;;;10.91;100.00
7966;BME280;4028;43.272;26.932;2023-02-24T09:22:20;99138.41;;;11.03;100.00
7966;BME280;4028;43.272;26.932;2023-02-24T09:30:12;99133.47;;;11.35;100.00
7966;BME280;4028;43.272;26.932;2023-02-24T09:32:56;99130.00;;;11.35;100.00
7966;BME280;4028;43.272;26.932;2023-02-24T09:35:28;99125.56;;;11.08;100.00
7966;BME280;4028;43.272;26.932;2023-02-24T09:37:58;99105.75;;;11.12;100.00
7966;BME280;4028;43.272;26.932;2023-02-24T09:40:32;99116.41;;;11.20;100.00
7966;BME280;4028;43.272;26.932;2023-02-24T09:43:16;99112.53;;;11.42;100.00
7966;BME280;4028;43.272;26.932;2023-02-24T09:49:03;99101.31;;;11.66;100.00
7966;BME280;4028;43.272;26.932;2023-02-24T09:51:30;99099.75;;;11.73;100.00
7966;BME280;4028;43.272;26.932;2023-02-24T09:54:17;99086.66;;;11.89;100.00
7966;BME280;4028;43.272;26.932;2023-02-24T09:56:56;99081.66;;;12.30;100.00
7966;BME280;4028;43.272;26.932;2023-02-24T09:59:52;99068.66;;;12.53;94.56
7966;BME280;4028;43.272;26.932;2023-02-24T10:02:53;99072.31;;;12.94;91.30
7966;BME280;4028;43.272;26.932;2023-02-24T10:05:38;99069.19;;;12.91;83.38
7966;BME280;4028;43.272;26.932;2023-02-24T10:08:20;99054.81;;;12.67;83.79
7966;BME280;4028;43.272;26.932;2023-02-24T10:10:50;99058.03;;;12.53;86.31
7966;BME280;4028;43.272;26.932;2023-02-24T10:13:32;99052.28;;;12.58;86.27
7966;BME280;4028;43.272;26.932;2023-02-24T10:16:01;99043.31;;;12.59;85.76
7966;BME280;4028;43.272;26.932;2023-02-24T10:21:43;99036.78;;;12.87;81.43
7966;BME280;4028;43.272;26.932;2023-02-24T10:24:28;99027.31;;;13.76;71.99
7966;BME280;4028;43.272;26.932;2023-02-24T10:27:00;99030.03;;;14.40;64.28
7966;BME280;4028;43.272;26.932;2023-02-24T10:29:38;99010.22;;;15.21;59.94
7966;BME280;4028;43.272;26.932;2023-02-24T10:34:49;98989.84;;;15.51;55.06
7966;BME280;4028;43.272;26.932;2023-02-24T10:37:17;98980.06;;;15.43;55.66
7966;BME280;4028;43.272;26.932;2023-02-24T10:39:44;98980.19;;;15.27;55.08
7966;BME280;4028;43.272;26.932;2023-02-24T10:42:26;98978.81;;;15.77;53.82
7966;BME280;4028;43.272;26.932;2023-02-24T10:45:05;98963.19;;;16.33;50.46
7966;BME280;4028;43.272;26.932;2023-02-24T10:47:37;98965.81;;;16.77;48.81
7966;BME280;4028;43.272;26.932;2023-02-24T10:50:31;98956.75;;;17.14;47.21
7966;BME280;4028;43.272;26.932;2023-02-24T10:53:17;98951.41;;;16.93;47.05
7966;BME280;4028;43.272;26.932;2023-02-24T10:56:06;98949.28;;;16.88;46.99
7966;BME280;4028;43.272;26.932;2023-02-24T10:59:12;98942.41;;;16.94;46.58
7966;BME280;4028;43.272;26.932;2023-02-24T11:02:06;98940.22;;;17.47;46.01
7966;BME280;4028;43.272;26.932;2023-02-24T11:04:52;98939.25;;;16.91;45.47
7966;BME280;4028;43.272;26.932;2023-02-24T11:07:27;98939.47;;;17.10;45.70
7966;BME280;4028;43.272;26.932;2023-02-24T11:10:20;98926.09;;;17.10;45.64
7966;BME280;4028;43.272;26.932;2023-02-24T11:12:58;98926.66;;;17.27;45.16
7966;BME280;4028;43.272;26.932;2023-02-24T11:15:51;98925.19;;;17.46;45.02
7966;BME280;4028;43.272;26.932;2023-02-24T11:18:44;98910.78;;;16.83;45.49
7966;BME280;4028;43.272;26.932;2023-02-24T11:21:11;98908.84;;;16.92;45.64
7966;BME280;4028;43.272;26.932;2023-02-24T11:23:41;98905.72;;;17.09;45.65
7966;BME280;4028;43.272;26.932;2023-02-24T11:26:20;98906.31;;;17.54;44.36
7966;BME280;4028;43.272;26.932;2023-02-24T11:31:43;98890.59;;;18.01;42.74
7966;BME280;4028;43.272;26.932;2023-02-24T11:37:01;98873.97;;;18.12;42.52
7966;BME280;4028;43.272;26.932;2023-02-24T11:42:16;98860.09;;;17.39;43.68
7966;BME280;4028;43.272;26.932;2023-02-24T11:45:18;98858.22;;;17.61;44.15
7966;BME280;4028;43.272;26.932;2023-02-24T11:47:52;98859.06;;;17.12;44.21
7966;BME280;4028;43.272;26.932;2023-02-24T11:52:55;98835.44;;;16.51;46.22
7966;BME280;4028;43.272;26.932;2023-02-24T11:55:30;98843.31;;;16.74;46.13
7966;BME280;4028;43.272;26.932;2023-02-24T11:58:02;98843.56;;;16.79;45.63
7966;BME280;4028;43.272;26.932;2023-02-24T12:00:31;98840.66;;;16.59;46.27
7966;BME280;4028;43.272;26.932;2023-02-24T12:03:11;98847.59;;;16.54;46.71
7966;BME280;4028;43.272;26.932;2023-02-24T12:05:45;98841.13;;;16.27;47.17
7966;BME280;4028;43.272;26.932;2023-02-24T12:08:33;98841.13;;;16.12;48.75
7966;BME280;4028;43.272;26.932;2023-02-24T12:13:44;98837.66;;;15.97;48.31
7966;BME280;4028;43.272;26.932;2023-02-24T12:16:17;98812.66;;;15.98;48.44
7966;BME280;4028;43.272;26.932;2023-02-24T12:19:02;98825.97;;;16.13;48.17
7966;BME280;4028;43.272;26.932;2023-02-24T12:21:34;98824.69;;;16.08;48.83
7966;BME280;4028;43.272;26.932;2023-02-24T12:24:01;98816.69;;;16.08;49.42
7966;BME280;4028;43.272;26.932;2023-02-24T12:34:59;98816.03;;;15.92;50.15
7966;BME280;4028;43.272;26.932;2023-02-24T12:40:43;98815.59;;;15.58;51.72
7966;BME280;4028;43.272;26.932;2023-02-24T12:43:33;98811.00;;;15.52;52.30
7966;BME280;4028;43.272;26.932;2023-02-24T12:46:35;98815.13;;;15.55;52.63
7966;BME280;4028;43.272;26.932;2023-02-24T12:49:32;98805.75;;;15.44;53.08
7966;BME280;4028;43.272;26.932;2023-02-24T12:57:54;98792.03;;;15.32;53.91
7966;BME280;4028;43.272;26.932;2023-02-24T13:01:14;98788.38;;;15.33;54.11
7966;BME280;4028;43.272;26.932;2023-02-24T13:12:05;98783.47;;;15.07;55.71
7966;BME280;4028;43.272;26.932;2023-02-24T13:14:39;98783.22;;;15.17;55.99
7966;BME280;4028;43.272;26.932;2023-02-24T13:19:30;98783.19;;;15.02;56.26
7966;BME280;4028;43.272;26.932;2023-02-24T13:22:04;98784.44;;;14.92;57.11
7966;BME280;4028;43.272;26.932;2023-02-24T13:24:30;98777.72;;;14.81;58.58
7966;BME280;4028;43.272;26.932;2023-02-24T13:32:44;98773.22;;;14.59;66.12
7966;BME280;4028;43.272;26.932;2023-02-24T13:37:44;98767.91;;;14.59;70.71
7966;BME280;4028;43.272;26.932;2023-02-24T13:45:25;98767.38;;;14.63;71.45
7966;BME280;4028;43.272;26.932;2023-02-24T13:48:30;98765.28;;;14.73;70.10
7966;BME280;4028;43.272;26.932;2023-02-24T13:51:21;98753.53;;;14.68;69.69
7966;BME280;4028;43.272;26.932;2023-02-24T13:56:56;98759.50;;;14.70;66.47
7966;BME280;4028;43.272;26.932;2023-02-24T14:02:20;98754.13;;;14.55;65.21
7966;BME280;4028;43.272;26.932;2023-02-24T14:04:50;98752.81;;;14.51;65.72
7966;BME280;4028;43.272;26.932;2023-02-24T14:07:28;98746.78;;;14.57;65.47
7966;BME280;4028;43.272;26.932;2023-02-24T14:10:01;98756.72;;;14.63;65.52
7966;BME280;4028;43.272;26.932;2023-02-24T14:12:33;98748.84;;;14.70;64.44
7966;BME280;4028;43.272;26.932;2023-02-24T14:14:59;98745.44;;;14.61;64.46
7966;BME280;4028;43.272;26.932;2023-02-24T14:17:31;98743.19;;;14.50;66.09
7966;BME280;4028;43.272;26.932;2023-02-24T14:20:13;98744.66;;;14.52;66.97
7966;BME280;4028;43.272;26.932;2023-02-24T14:22:48;98740.81;;;14.55;67.30
7966;BME280;4028;43.272;26.932;2023-02-24T14:25:15;98738.06;;;14.63;65.39
7966;BME280;4028;43.272;26.932;2023-02-24T14:27:46;98743.78;;;14.60;64.58
7966;BME280;4028;43.272;26.932;2023-02-24T14:30:36;98733.84;;;14.54;66.18
7966;BME280;4028;43.272;26.932;2023-02-24T14:33:04;98731.34;;;14.52;68.41
7966;BME280;4028;43.272;26.932;2023-02-24T14:35:44;98725.28;;;14.59;68.33
7966;BME280;4028;43.272;26.932;2023-02-24T14:41:00;98722.72;;;14.50;69.64
7966;BME280;4028;43.272;26.932;2023-02-24T14:43:26;98721.56;;;14.45;69.64
7966;BME280;4028;43.272;26.932;2023-02-24T14:45:52;98724.66;;;14.34;70.64
7966;BME280;4028;43.272;26.932;2023-02-24T14:48:22;98706.56;;;14.29;71.95
7966;BME280;4028;43.272;26.932;2023-02-24T14:50:48;98716.91;;;14.24;72.64
7966;BME280;4028;43.272;26.932;2023-02-24T14:53:16;98707.28;;;14.23;72.14
7966;BME280;4028;43.272;26.932;2023-02-24T14:55:46;98708.78;;;14.17;73.64
7966;BME280;4028;43.272;26.932;2023-02-24T15:00:52;98710.00;;;14.15;75.72
7966;BME280;4028;43.272;26.932;2023-02-24T15:03:30;98702.41;;;14.03;77.17
7966;BME280;4028;43.272;26.932;2023-02-24T15:05:59;98707.44;;;13.98;78.04
7966;BME280;4028;43.272;26.932;2023-02-24T15:08:28;98698.69;;;13.90;80.08
7966;BME280;4028;43.272;26.932;2023-02-24T15:10:56;98706.53;;;13.83;81.25
7966;BME280;4028;43.272;26.932;2023-02-24T15:13:55;98695.94;;;13.75;81.76
7966;BME280;4028;43.272;26.932;2023-02-24T15:16:28;98696.00;;;13.67;82.95
7966;BME280;4028;43.272;26.932;2023-02-24T15:18:58;98691.06;;;13.56;84.15
7966;BME280;4028;43.272;26.932;2023-02-24T15:21:31;98692.44;;;13.43;85.99
7966;BME280;4028;43.272;26.932;2023-02-24T15:24:15;98691.44;;;13.44;86.21
7966;BME280;4028;43.272;26.932;2023-02-24T15:26:41;98690.13;;;13.40;86.69
7966;BME280;4028;43.272;26.932;2023-02-24T15:29:32;98690.81;;;13.34;88.12
7966;BME280;4028;43.272;26.932;2023-02-24T15:31:59;98691.19;;;13.23;89.67